createdAt,value
2018-10-02T00:03:08.747Z,10.83
2018-10-02T00:08:10.881Z,10.85
2018-10-02T00:13:18.645Z,10.85
2018-10-02T00:18:20.771Z,10.85
2018-10-02T00:23:22.894Z,10.94
2018-10-02T00:28:24.991Z,11.00
2018-10-02T00:33:27.162Z,11.00
2018-10-02T00:38:29.260Z,11.04
2018-10-02T00:43:31.417Z,11.07
2018-10-02T00:48:33.525Z,11.06
2018-10-02T00:53:35.651Z,11.10
2018-10-02T00:58:37.774Z,11.11
2018-10-02T01:03:39.887Z,11.00
2018-10-02T01:08:42.030Z,10.97
2018-10-02T01:13:44.129Z,10.91
2018-10-02T01:18:46.258Z,10.81
2018-10-02T01:23:48.367Z,10.70
2018-10-02T01:28:50.485Z,10.73
2018-10-02T01:33:52.631Z,10.60
2018-10-02T01:38:54.803Z,10.56
2018-10-02T01:43:56.922Z,10.51
2018-10-02T01:48:59.072Z,10.48
2018-10-02T01:54:01.181Z,10.40
2018-10-02T01:59:03.374Z,10.48
2018-10-02T02:04:05.479Z,10.46
2018-10-02T02:09:07.857Z,10.43
2018-10-02T02:14:09.970Z,10.52
2018-10-02T02:19:12.074Z,10.47
2018-10-02T02:24:14.260Z,10.57
2018-10-02T02:29:16.478Z,10.56
2018-10-02T02:34:18.608Z,10.42
2018-10-02T02:39:20.733Z,10.48
2018-10-02T02:44:22.859Z,10.45
2018-10-02T02:49:30.587Z,10.45
2018-10-02T02:54:32.730Z,10.50
2018-10-02T02:59:34.871Z,10.54
2018-10-02T03:04:36.983Z,10.58
2018-10-02T03:09:39.078Z,10.65
2018-10-02T03:14:41.199Z,10.65
2018-10-02T03:19:43.292Z,10.65
2018-10-02T03:24:45.377Z,10.71
2018-10-02T03:29:47.559Z,10.69
2018-10-02T03:34:49.663Z,10.73
2018-10-02T03:39:51.857Z,10.56
2018-10-02T03:44:53.992Z,10.67
2018-10-02T03:49:59.124Z,10.75
2018-10-02T03:55:01.257Z,10.76
2018-10-02T04:00:03.904Z,10.77
2018-10-02T04:05:06.047Z,10.78
2018-10-02T04:10:08.163Z,10.76
2018-10-02T04:15:10.300Z,10.80
2018-10-02T04:20:12.459Z,10.80
2018-10-02T04:25:14.569Z,10.68
2018-10-02T04:30:17.137Z,10.69
2018-10-02T04:35:19.267Z,10.70
2018-10-02T04:40:21.407Z,10.81
2018-10-02T04:45:23.521Z,10.81
2018-10-02T04:50:25.765Z,10.81
2018-10-02T04:55:27.860Z,10.65
2018-10-02T05:00:30.007Z,10.70
2018-10-02T05:05:32.093Z,10.81
2018-10-02T05:10:34.212Z,10.67
2018-10-02T05:15:36.321Z,10.74
2018-10-02T05:20:38.480Z,10.60
2018-10-02T05:25:40.601Z,10.88
2018-10-02T05:30:42.738Z,10.89
2018-10-02T05:35:44.901Z,10.82
2018-10-02T05:40:47.007Z,10.89
2018-10-02T05:45:49.195Z,10.83
2018-10-02T05:50:51.337Z,10.88
2018-10-02T05:55:53.671Z,10.79
2018-10-02T06:00:56.172Z,10.72
2018-10-02T06:05:58.285Z,10.69
2018-10-02T06:11:00.477Z,10.63
2018-10-02T06:16:02.590Z,10.68
2018-10-02T06:21:04.905Z,10.66
2018-10-02T06:26:07.046Z,10.56
2018-10-02T06:31:09.187Z,10.59
2018-10-02T06:36:11.479Z,10.45
2018-10-02T06:41:13.606Z,10.41
2018-10-02T06:46:15.739Z,10.49
2018-10-02T06:51:17.984Z,10.37
2018-10-02T06:56:20.087Z,10.42
2018-10-02T07:01:22.254Z,10.51
2018-10-02T07:06:24.418Z,10.54
2018-10-02T07:11:26.601Z,10.56
2018-10-02T07:16:28.780Z,10.47
2018-10-02T07:21:30.975Z,10.56
2018-10-02T07:26:33.197Z,10.56
2018-10-02T07:31:35.328Z,10.50
2018-10-02T07:36:37.591Z,10.59
2018-10-02T07:41:39.767Z,10.43
2018-10-02T07:46:41.876Z,10.30
2018-10-02T07:51:43.978Z,10.51
2018-10-02T07:56:46.176Z,10.37
2018-10-02T08:01:48.395Z,10.43
2018-10-02T08:06:50.589Z,10.26
2018-10-02T08:11:52.737Z,10.14
2018-10-02T08:16:54.872Z,10.21
2018-10-02T08:21:57.058Z,10.14
2018-10-02T08:26:59.223Z,10.44
2018-10-02T08:32:01.323Z,10.29
2018-10-02T08:37:03.489Z,10.37
2018-10-02T08:42:05.700Z,10.03
2018-10-02T08:47:07.900Z,9.92
2018-10-02T08:52:10.151Z,10.14
2018-10-02T08:57:13.076Z,10.08
2018-10-02T09:02:15.260Z,10.00
2018-10-02T09:07:17.439Z,10.03
2018-10-02T09:12:19.603Z,10.31
2018-10-02T09:17:21.759Z,9.95
2018-10-02T09:22:23.902Z,9.84
2018-10-02T09:27:26.062Z,9.81
2018-10-02T09:32:34.011Z,9.93
2018-10-02T09:37:41.955Z,9.97
2018-10-02T09:42:49.989Z,9.80
2018-10-02T09:47:52.156Z,9.80
2018-10-02T09:52:54.353Z,10.07
2018-10-02T09:57:56.584Z,10.23
2018-10-02T10:02:58.824Z,10.27
2018-10-02T10:08:00.988Z,10.21
2018-10-02T10:13:03.123Z,10.36
2018-10-02T10:18:05.303Z,10.24
2018-10-02T10:23:07.480Z,10.22
2018-10-02T10:28:09.654Z,10.23
2018-10-02T10:33:12.042Z,10.07
2018-10-02T10:38:14.197Z,10.12
2018-10-02T10:43:16.333Z,10.37
2018-10-02T10:48:18.535Z,10.44
2018-10-02T10:53:20.843Z,10.51
2018-10-02T10:58:23.039Z,10.56
2018-10-02T11:03:25.147Z,10.55
2018-10-02T11:08:27.287Z,10.30
2018-10-02T11:13:29.421Z,10.39
2018-10-02T11:18:31.570Z,10.31
2018-10-02T11:23:33.787Z,10.50
2018-10-02T11:28:35.954Z,10.35
2018-10-02T11:33:38.106Z,10.51
2018-10-02T11:38:40.255Z,10.40
2018-10-02T11:43:42.479Z,10.47
2018-10-02T11:48:44.647Z,10.50
2018-10-02T11:53:46.876Z,10.76
2018-10-02T11:58:49.027Z,10.84
2018-10-02T12:03:51.289Z,10.89
2018-10-02T12:08:53.505Z,10.88
2018-10-02T12:13:55.675Z,10.95
2018-10-02T12:18:57.932Z,10.93
2018-10-02T12:24:00.190Z,10.99
2018-10-02T12:29:02.499Z,11.38
2018-10-02T12:34:04.747Z,11.68
2018-10-02T12:39:07.636Z,12.09
2018-10-02T12:44:09.773Z,12.35
2018-10-02T12:49:12.149Z,12.29
2018-10-02T12:54:14.370Z,12.48
2018-10-02T12:59:16.528Z,12.75
2018-10-02T13:04:18.689Z,12.91
2018-10-02T13:09:20.840Z,13.14
2018-10-02T13:14:23.042Z,13.07
2018-10-02T13:19:25.161Z,13.18
2018-10-02T13:24:27.362Z,13.35
2018-10-02T13:29:29.508Z,13.81
2018-10-02T13:34:31.748Z,14.32
2018-10-02T13:39:33.820Z,14.08
2018-10-02T13:44:36.029Z,13.59
2018-10-02T13:49:38.145Z,13.07
2018-10-02T13:54:40.299Z,12.93
2018-10-02T13:59:42.450Z,12.75
2018-10-02T14:04:44.623Z,12.91
2018-10-02T14:09:46.743Z,13.33
2018-10-02T14:14:48.892Z,13.68
2018-10-02T14:19:51.080Z,13.79
2018-10-02T14:24:53.296Z,14.38
2018-10-02T14:29:55.442Z,14.96
2018-10-02T14:34:57.577Z,14.54
2018-10-02T14:39:59.760Z,14.07
2018-10-02T14:45:01.965Z,13.74
2018-10-02T14:50:04.204Z,13.53
2018-10-02T14:55:06.431Z,13.25
2018-10-02T15:00:08.652Z,13.20
2018-10-02T15:05:10.877Z,12.98
2018-10-02T15:10:13.018Z,13.04
2018-10-02T15:15:15.203Z,13.06
2018-10-02T15:20:17.420Z,13.23
2018-10-02T15:25:19.630Z,13.21
2018-10-02T15:30:21.803Z,13.34
2018-10-02T15:35:23.957Z,13.29
2018-10-02T15:40:26.168Z,13.06
2018-10-02T15:45:28.339Z,12.97
2018-10-02T15:50:30.531Z,13.03
2018-10-02T15:55:32.721Z,13.05
2018-10-02T16:00:34.872Z,13.02
2018-10-02T16:05:37.067Z,12.85
2018-10-02T16:10:39.910Z,12.64
2018-10-02T16:15:42.058Z,12.66
2018-10-02T16:20:44.244Z,12.61
2018-10-02T16:25:46.416Z,12.45
2018-10-02T16:30:48.617Z,12.32
2018-10-02T16:35:50.782Z,12.36
2018-10-02T16:40:55.555Z,12.22
2018-10-02T16:45:57.771Z,12.09
2018-10-02T16:50:59.985Z,12.13
2018-10-02T16:56:02.236Z,12.01
2018-10-02T17:01:04.461Z,11.94
2018-10-02T17:06:06.669Z,11.99
2018-10-02T17:11:08.865Z,11.87
2018-10-02T17:16:11.017Z,11.93
2018-10-02T17:21:13.188Z,11.92
2018-10-02T17:26:15.410Z,11.80
2018-10-02T17:31:17.589Z,11.78
2018-10-02T17:36:19.788Z,11.92
2018-10-02T17:41:21.962Z,11.80
2018-10-02T17:46:24.171Z,11.77
2018-10-02T17:51:26.337Z,11.68
2018-10-02T17:56:28.548Z,11.62
2018-10-02T18:01:30.857Z,11.61
2018-10-02T18:06:33.062Z,11.66
2018-10-02T18:11:35.472Z,11.65
2018-10-02T18:16:37.675Z,11.68
2018-10-02T18:21:39.937Z,11.59
2018-10-02T18:26:42.124Z,11.26
2018-10-02T18:31:44.370Z,11.27
2018-10-02T18:36:46.637Z,11.29
2018-10-02T18:41:49.021Z,11.32
2018-10-02T18:46:51.364Z,11.42
2018-10-02T18:51:53.677Z,11.35
2018-10-02T18:56:55.967Z,11.42
2018-10-02T19:01:58.326Z,11.36
2018-10-02T19:07:00.831Z,11.42
2018-10-02T19:12:09.256Z,11.36
2018-10-02T19:17:12.220Z,11.23
2018-10-02T19:22:14.822Z,11.31
2018-10-02T19:27:17.279Z,11.20
2018-10-02T19:32:20.105Z,11.28
2018-10-02T19:37:28.499Z,11.35
2018-10-02T19:42:31.115Z,11.28
2018-10-02T19:47:33.897Z,11.21
2018-10-02T19:52:37.159Z,11.24
2018-10-02T19:57:39.741Z,11.16
2018-10-02T20:02:42.294Z,11.06
2018-10-02T20:07:45.265Z,11.11
2018-10-02T20:12:47.900Z,11.15
2018-10-02T20:17:50.269Z,11.07
2018-10-02T20:22:52.664Z,11.03
2018-10-02T20:27:55.054Z,11.02
2018-10-02T20:32:57.477Z,11.12
2018-10-02T20:37:59.883Z,10.99
2018-10-02T20:43:02.331Z,10.95
2018-10-02T20:48:04.703Z,11.03
2018-10-02T20:53:07.123Z,11.04
2018-10-02T20:58:09.522Z,11.03
2018-10-02T21:03:11.787Z,11.14
2018-10-02T21:08:14.037Z,11.07
2018-10-02T21:13:16.216Z,11.10
2018-10-02T21:18:18.559Z,11.14
2018-10-02T21:23:20.717Z,11.03
2018-10-02T21:28:23.050Z,11.07
2018-10-02T21:33:25.238Z,11.14
2018-10-02T21:38:27.388Z,11.14
2018-10-02T21:43:29.525Z,11.11
2018-10-02T21:48:31.700Z,11.19
2018-10-02T21:53:33.942Z,11.28
2018-10-02T21:58:36.136Z,11.28
2018-10-02T22:03:39.491Z,11.28
2018-10-02T22:08:41.727Z,11.30
2018-10-02T22:13:43.882Z,11.32
2018-10-02T22:18:46.181Z,11.30
2018-10-02T22:23:48.422Z,11.26
2018-10-02T22:28:50.603Z,11.23
2018-10-02T22:33:52.719Z,11.22
2018-10-02T22:38:54.913Z,11.25
2018-10-02T22:43:57.046Z,11.20
2018-10-02T22:48:59.269Z,11.13
2018-10-02T22:54:01.419Z,11.20
2018-10-02T22:59:03.602Z,11.09
2018-10-02T23:04:06.248Z,11.12
2018-10-02T23:09:09.977Z,11.12
2018-10-02T23:14:12.045Z,11.05
2018-10-02T23:19:14.170Z,11.06
2018-10-02T23:24:16.344Z,11.01
2018-10-02T23:29:18.474Z,10.94
2018-10-02T23:34:20.599Z,10.96
2018-10-02T23:39:22.722Z,10.96
2018-10-02T23:44:24.871Z,10.95
2018-10-02T23:49:26.985Z,10.97
2018-10-02T23:54:29.088Z,11.02
2018-10-02T23:59:31.221Z,10.87
